Terminal Aerodrome Forecast
Issued by NWS Sioux Falls, SD

Home | Current Version | Previous Version | Text Only | Print | Product List | Glossary On
Versions: 1 2 3 4 5 6 7 8 9 10 11 12 13 14
000
FTUS43 KFSD 251723
TAFFSD
TAF
KFSD 251723Z 2518/2618 31011G18KT P6SM FEW200
     FM260100 33007KT P6SM SCT100
     FM260700 VRB03KT P6SM SCT130
     FM261600 03007KT P6SM FEW250=

USA.gov is the U.S. government's official web portal to all federal, state and local government web resources and services.